Airfield :
LOGIN :

Register | Disclaimer

   EN    FR    IT 

 










Legend :    VFR   Marginal VFR   IFR   Intensive IFR   Very Intensive IFR
Visi :
Ceiling :
>= 8 km
>= 3000ft
5 to 8 km
1000 to 3000 ft
1500m to 5 km
500 to 1000 ft
800 to 1500m
200 to 500 ft
< 800m
< 200 ft
Symbols :   Thunderstorms  Fog  Heavy snow  Heavy precipitations  Wind > 20 kt
SIGMETs :     Misc.  Thunderstorms  Icing  Turbulence  Mountain Waves  Volcanic Ashes







- Airport Elevation : 156 ft
- IATA code : LCC


LIBN - Lecce Galatine (military)

CURRENT METAR :
  • 221055Z 10009KT 2000 TSRA BR SCT015 FEW020CB BKN040 16/16 Q1012 RMK OVC VIS MIN 2000 WIND THR14 11007KT WIND THR32 11008KT YLO

EXPIRED METARs :
  • 220955Z 12009KT 6000 -TSRA FEW015CB SCT025 17/16 Q1013 RMK OVC BKN070 VIS MIN 6000 WIND THR14 12008KT WIND THR32 11009KT WHT
  • 220855Z 10005KT 7000 -RA FEW015TCU SCT025 16/15 Q1013 RMK OVC BKN060 VIS MIN 7000 WIND THR14 11005KT WIND THR32 10006KT WHT

TAF TAF LIBN
Valid from the 22 at 12:00 until the 22 at 21:00 UTC


221100Z 2212/2221 12012KT 8000 SCT025
TEMPO 2212/2221 13020G30KT 6000 RA SCT020 BKN030
TEMPO 2212/2214 TSRA FEW020CB BKN025
No reported NOTAMs for that airfield.
1 SIGMET reported for the Brindisi FIR (LIBB) :
 
Embedded thunderstorms
LIBB SIGMET 2 VALID 221202/221300 LIIB
LIBB BRINDISI FIR EMBD TS FCST E OF LINE N4221 E01706 - N3843 E01718 TOP ABV FL320 MOV E NC=



MET'MAP, your aeronautical weather chart ! - Copyright ORBIFLY December 2007 - Disclaimer

ORBIFLY MET'MAP TEAM :

Programming & Development : Alexandra Zaïnal
Concept & Development : Baudouin d'Aumeries
Co-Development & Prog : Marc-Olivier Méhu
Technical & hardware support : Manuel Goepfert

Contact : metmap@orbifly.com




SOURCES & CREDITS :

   NOAA